sensor_id;sensor_type;location;lat;lon;timestamp;temperature;humidity
19168;DHT22;9716;53.114;18.040;2023-03-14T00:00:06;11.90;99.90
19168;DHT22;9716;53.114;18.040;2023-03-14T00:03:09;11.90;99.90
19168;DHT22;9716;53.114;18.040;2023-03-14T00:05:38;11.90;99.90
19168;DHT22;9716;53.114;18.040;2023-03-14T00:08:06;11.90;99.90
19168;DHT22;9716;53.114;18.040;2023-03-14T00:10:37;11.90;99.90
19168;DHT22;9716;53.114;18.040;2023-03-14T00:13:05;11.80;99.90
19168;DHT22;9716;53.114;18.040;2023-03-14T00:15:34;11.80;99.90
19168;DHT22;9716;53.114;18.040;2023-03-14T00:18:03;11.90;99.90
19168;DHT22;9716;53.114;18.040;2023-03-14T00:20:31;11.90;99.90
19168;DHT22;9716;53.114;18.040;2023-03-14T00:23:00;11.90;99.90
19168;DHT22;9716;53.114;18.040;2023-03-14T00:25:29;11.90;99.90
19168;DHT22;9716;53.114;18.040;2023-03-14T00:27:59;11.90;99.90
19168;DHT22;9716;53.114;18.040;2023-03-14T00:30:27;11.90;99.90
19168;DHT22;9716;53.114;18.040;2023-03-14T00:32:56;11.90;99.90
19168;DHT22;9716;53.114;18.040;2023-03-14T00:35:24;11.90;99.90
19168;DHT22;9716;53.114;18.040;2023-03-14T00:37:53;11.90;99.90
19168;DHT22;9716;53.114;18.040;2023-03-14T00:40:21;11.90;99.90
19168;DHT22;9716;53.114;18.040;2023-03-14T00:42:50;11.90;99.90
19168;DHT22;9716;53.114;18.040;2023-03-14T00:45:19;11.90;99.90
19168;DHT22;9716;53.114;18.040;2023-03-14T00:47:48;11.90;99.90
19168;DHT22;9716;53.114;18.040;2023-03-14T00:50:17;11.90;99.90
19168;DHT22;9716;53.114;18.040;2023-03-14T00:52:45;11.90;99.90
19168;DHT22;9716;53.114;18.040;2023-03-14T00:55:17;11.90;99.90
19168;DHT22;9716;53.114;18.040;2023-03-14T00:57:45;11.90;99.90
19168;DHT22;9716;53.114;18.040;2023-03-14T01:00:14;11.90;99.90
19168;DHT22;9716;53.114;18.040;2023-03-14T01:02:44;11.90;99.90
19168;DHT22;9716;53.114;18.040;2023-03-14T01:05:14;11.80;99.90
19168;DHT22;9716;53.114;18.040;2023-03-14T01:07:42;11.80;99.90
19168;DHT22;9716;53.114;18.040;2023-03-14T01:10:11;11.90;99.90
19168;DHT22;9716;53.114;18.040;2023-03-14T01:12:39;11.80;99.90
19168;DHT22;9716;53.114;18.040;2023-03-14T01:15:09;11.80;99.90
19168;DHT22;9716;53.114;18.040;2023-03-14T01:17:37;11.80;99.90
19168;DHT22;9716;53.114;18.040;2023-03-14T01:20:10;11.80;99.90
19168;DHT22;9716;53.114;18.040;2023-03-14T01:22:39;11.80;99.90
19168;DHT22;9716;53.114;18.040;2023-03-14T01:25:10;11.80;99.90
19168;DHT22;9716;53.114;18.040;2023-03-14T01:27:39;11.70;99.90
19168;DHT22;9716;53.114;18.040;2023-03-14T01:30:09;11.70;99.90
19168;DHT22;9716;53.114;18.040;2023-03-14T01:32:38;11.70;99.90
19168;DHT22;9716;53.114;18.040;2023-03-14T01:35:08;11.70;99.90
19168;DHT22;9716;53.114;18.040;2023-03-14T01:37:37;11.60;99.90
19168;DHT22;9716;53.114;18.040;2023-03-14T01:40:06;11.60;99.90
19168;DHT22;9716;53.114;18.040;2023-03-14T01:42:34;11.60;99.90
19168;DHT22;9716;53.114;18.040;2023-03-14T01:45:03;11.60;99.90
19168;DHT22;9716;53.114;18.040;2023-03-14T01:47:32;11.60;99.90
19168;DHT22;9716;53.114;18.040;2023-03-14T01:50:04;11.60;99.90
19168;DHT22;9716;53.114;18.040;2023-03-14T01:52:37;11.60;99.90
19168;DHT22;9716;53.114;18.040;2023-03-14T01:55:14;11.50;99.90
19168;DHT22;9716;53.114;18.040;2023-03-14T01:57:45;11.60;99.90
19168;DHT22;9716;53.114;18.040;2023-03-14T02:00:16;11.50;99.90
19168;DHT22;9716;53.114;18.040;2023-03-14T02:02:46;11.50;99.90
19168;DHT22;9716;53.114;18.040;2023-03-14T02:05:19;11.50;99.90
19168;DHT22;9716;53.114;18.040;2023-03-14T02:07:51;11.50;99.90
19168;DHT22;9716;53.114;18.040;2023-03-14T02:10:23;11.50;99.90
19168;DHT22;9716;53.114;18.040;2023-03-14T02:12:54;11.50;99.90
19168;DHT22;9716;53.114;18.040;2023-03-14T02:15:23;11.50;99.90
19168;DHT22;9716;53.114;18.040;2023-03-14T02:17:52;11.50;99.90
19168;DHT22;9716;53.114;18.040;2023-03-14T02:20:30;11.50;99.90
19168;DHT22;9716;53.114;18.040;2023-03-14T02:23:04;11.50;99.90
19168;DHT22;9716;53.114;18.040;2023-03-14T02:25:39;11.40;99.90
19168;DHT22;9716;53.114;18.040;2023-03-14T02:28:10;11.40;99.90
19168;DHT22;9716;53.114;18.040;2023-03-14T02:30:40;11.40;99.90
19168;DHT22;9716;53.114;18.040;2023-03-14T02:33:11;11.40;99.90
19168;DHT22;9716;53.114;18.040;2023-03-14T02:35:43;11.40;99.90
19168;DHT22;9716;53.114;18.040;2023-03-14T02:38:18;11.40;99.90
19168;DHT22;9716;53.114;18.040;2023-03-14T02:40:49;11.40;99.90
19168;DHT22;9716;53.114;18.040;2023-03-14T02:43:19;11.50;99.90
19168;DHT22;9716;53.114;18.040;2023-03-14T02:45:49;11.50;99.90
19168;DHT22;9716;53.114;18.040;2023-03-14T02:48:20;11.60;99.90
19168;DHT22;9716;53.114;18.040;2023-03-14T02:50:50;11.60;99.90
19168;DHT22;9716;53.114;18.040;2023-03-14T02:53:23;11.60;99.90
19168;DHT22;9716;53.114;18.040;2023-03-14T02:55:52;11.60;99.90
19168;DHT22;9716;53.114;18.040;2023-03-14T02:58:22;11.70;99.90
19168;DHT22;9716;53.114;18.040;2023-03-14T03:00:50;11.60;99.90
19168;DHT22;9716;53.114;18.040;2023-03-14T03:03:19;11.70;99.90
19168;DHT22;9716;53.114;18.040;2023-03-14T03:05:49;11.70;99.90
19168;DHT22;9716;53.114;18.040;2023-03-14T03:08:18;11.70;99.90
19168;DHT22;9716;53.114;18.040;2023-03-14T03:10:47;11.70;99.90
19168;DHT22;9716;53.114;18.040;2023-03-14T03:13:16;11.80;99.90
19168;DHT22;9716;53.114;18.040;2023-03-14T03:15:47;11.80;99.90
19168;DHT22;9716;53.114;18.040;2023-03-14T03:18:15;11.80;99.90
19168;DHT22;9716;53.114;18.040;2023-03-14T03:20:43;11.80;99.90
19168;DHT22;9716;53.114;18.040;2023-03-14T03:23:12;11.80;99.90
19168;DHT22;9716;53.114;18.040;2023-03-14T03:25:41;11.90;99.90
19168;DHT22;9716;53.114;18.040;2023-03-14T03:28:09;11.80;99.90
19168;DHT22;9716;53.114;18.040;2023-03-14T03:30:38;11.90;99.90
19168;DHT22;9716;53.114;18.040;2023-03-14T03:33:08;11.80;99.90
19168;DHT22;9716;53.114;18.040;2023-03-14T03:35:42;11.80;99.90
19168;DHT22;9716;53.114;18.040;2023-03-14T03:38:11;11.90;99.90
19168;DHT22;9716;53.114;18.040;2023-03-14T03:40:40;11.90;99.90
19168;DHT22;9716;53.114;18.040;2023-03-14T03:43:08;11.80;99.90
19168;DHT22;9716;53.114;18.040;2023-03-14T03:45:37;11.90;99.90
19168;DHT22;9716;53.114;18.040;2023-03-14T03:48:05;11.90;99.90
19168;DHT22;9716;53.114;18.040;2023-03-14T03:50:35;11.90;99.90
19168;DHT22;9716;53.114;18.040;2023-03-14T03:53:03;11.80;99.90
19168;DHT22;9716;53.114;18.040;2023-03-14T03:55:32;11.80;99.90
19168;DHT22;9716;53.114;18.040;2023-03-14T03:58:00;11.80;99.90
19168;DHT22;9716;53.114;18.040;2023-03-14T04:00:29;11.80;99.90
19168;DHT22;9716;53.114;18.040;2023-03-14T04:02:58;11.80;99.90
19168;DHT22;9716;53.114;18.040;2023-03-14T04:05:28;11.80;99.90
19168;DHT22;9716;53.114;18.040;2023-03-14T04:07:57;11.80;99.90
19168;DHT22;9716;53.114;18.040;2023-03-14T04:10:26;11.70;99.90
19168;DHT22;9716;53.114;18.040;2023-03-14T04:12:54;11.70;99.90
19168;DHT22;9716;53.114;18.040;2023-03-14T04:15:23;11.60;99.90
19168;DHT22;9716;53.114;18.040;2023-03-14T04:17:51;11.60;99.90
19168;DHT22;9716;53.114;18.040;2023-03-14T04:20:24;11.50;99.90
19168;DHT22;9716;53.114;18.040;2023-03-14T04:22:56;11.50;99.90
19168;DHT22;9716;53.114;18.040;2023-03-14T04:25:25;11.50;99.90
19168;DHT22;9716;53.114;18.040;2023-03-14T04:27:53;11.50;99.90
19168;DHT22;9716;53.114;18.040;2023-03-14T04:30:22;11.40;99.90
19168;DHT22;9716;53.114;18.040;2023-03-14T04:32:50;11.40;99.90
19168;DHT22;9716;53.114;18.040;2023-03-14T04:35:19;11.40;99.90
19168;DHT22;9716;53.114;18.040;2023-03-14T04:37:47;11.40;99.90
19168;DHT22;9716;53.114;18.040;2023-03-14T04:40:18;11.40;99.90
19168;DHT22;9716;53.114;18.040;2023-03-14T04:42:46;11.40;99.90
19168;DHT22;9716;53.114;18.040;2023-03-14T04:45:15;11.40;99.90
19168;DHT22;9716;53.114;18.040;2023-03-14T04:47:43;11.40;99.90
19168;DHT22;9716;53.114;18.040;2023-03-14T04:50:12;11.40;99.90
19168;DHT22;9716;53.114;18.040;2023-03-14T04:52:40;11.40;99.90
19168;DHT22;9716;53.114;18.040;2023-03-14T04:55:09;11.40;99.90
19168;DHT22;9716;53.114;18.040;2023-03-14T04:57:38;11.40;99.90
19168;DHT22;9716;53.114;18.040;2023-03-14T05:00:08;11.30;99.90
19168;DHT22;9716;53.114;18.040;2023-03-14T05:02:37;11.30;99.90
19168;DHT22;9716;53.114;18.040;2023-03-14T05:05:06;11.30;99.90
19168;DHT22;9716;53.114;18.040;2023-03-14T05:07:34;11.30;99.90
19168;DHT22;9716;53.114;18.040;2023-03-14T05:10:04;11.30;99.90
19168;DHT22;9716;53.114;18.040;2023-03-14T05:12:32;11.30;99.90
19168;DHT22;9716;53.114;18.040;2023-03-14T05:15:03;11.30;99.90
19168;DHT22;9716;53.114;18.040;2023-03-14T05:17:32;11.30;99.90
19168;DHT22;9716;53.114;18.040;2023-03-14T05:20:01;11.20;99.90
19168;DHT22;9716;53.114;18.040;2023-03-14T05:22:36;11.20;99.90
19168;DHT22;9716;53.114;18.040;2023-03-14T05:25:05;11.20;99.90
19168;DHT22;9716;53.114;18.040;2023-03-14T05:27:34;11.10;99.90
19168;DHT22;9716;53.114;18.040;2023-03-14T05:30:06;11.10;99.90
19168;DHT22;9716;53.114;18.040;2023-03-14T05:32:34;11.00;99.90
19168;DHT22;9716;53.114;18.040;2023-03-14T05:35:03;11.00;99.90
19168;DHT22;9716;53.114;18.040;2023-03-14T05:37:32;11.00;99.90
19168;DHT22;9716;53.114;18.040;2023-03-14T05:40:02;10.90;99.90
19168;DHT22;9716;53.114;18.040;2023-03-14T05:42:31;10.90;99.90
19168;DHT22;9716;53.114;18.040;2023-03-14T05:45:00;10.90;99.90
19168;DHT22;9716;53.114;18.040;2023-03-14T05:47:30;10.90;99.90
19168;DHT22;9716;53.114;18.040;2023-03-14T05:49:58;10.90;99.90
19168;DHT22;9716;53.114;18.040;2023-03-14T05:52:26;10.90;99.90
19168;DHT22;9716;53.114;18.040;2023-03-14T05:54:55;10.90;99.90
19168;DHT22;9716;53.114;18.040;2023-03-14T05:57:23;11.00;99.90
19168;DHT22;9716;53.114;18.040;2023-03-14T05:59:52;11.00;99.90
19168;DHT22;9716;53.114;18.040;2023-03-14T06:02:20;11.00;99.90
19168;DHT22;9716;53.114;18.040;2023-03-14T06:04:50;11.10;99.90
19168;DHT22;9716;53.114;18.040;2023-03-14T06:07:19;11.20;99.90
19168;DHT22;9716;53.114;18.040;2023-03-14T06:09:47;11.20;99.90
19168;DHT22;9716;53.114;18.040;2023-03-14T06:12:16;11.30;99.90
19168;DHT22;9716;53.114;18.040;2023-03-14T06:14:44;11.30;99.90
19168;DHT22;9716;53.114;18.040;2023-03-14T06:17:13;11.40;99.90
19168;DHT22;9716;53.114;18.040;2023-03-14T06:19:41;11.40;99.90
19168;DHT22;9716;53.114;18.040;2023-03-14T06:22:11;11.50;99.90
19168;DHT22;9716;53.114;18.040;2023-03-14T06:24:39;11.50;99.90
19168;DHT22;9716;53.114;18.040;2023-03-14T06:27:08;11.50;99.90
19168;DHT22;9716;53.114;18.040;2023-03-14T06:29:36;11.60;99.90
19168;DHT22;9716;53.114;18.040;2023-03-14T06:32:05;11.70;99.90
19168;DHT22;9716;53.114;18.040;2023-03-14T06:34:33;11.80;99.90
19168;DHT22;9716;53.114;18.040;2023-03-14T06:37:02;11.80;99.90
19168;DHT22;9716;53.114;18.040;2023-03-14T06:39:32;11.90;99.90
19168;DHT22;9716;53.114;18.040;2023-03-14T06:42:00;11.90;99.90
19168;DHT22;9716;53.114;18.040;2023-03-14T06:44:29;11.90;99.90
19168;DHT22;9716;53.114;18.040;2023-03-14T06:46:58;12.10;99.90
19168;DHT22;9716;53.114;18.040;2023-03-14T06:49:26;12.10;99.90
19168;DHT22;9716;53.114;18.040;2023-03-14T06:51:55;12.10;99.90
19168;DHT22;9716;53.114;18.040;2023-03-14T06:54:23;12.20;99.90
19168;DHT22;9716;53.114;18.040;2023-03-14T06:56:53;12.20;99.90
19168;DHT22;9716;53.114;18.040;2023-03-14T06:59:22;12.10;99.90
19168;DHT22;9716;53.114;18.040;2023-03-14T07:01:50;12.10;99.90
19168;DHT22;9716;53.114;18.040;2023-03-14T07:04:19;12.10;99.90
19168;DHT22;9716;53.114;18.040;2023-03-14T07:06:47;12.10;99.90
19168;DHT22;9716;53.114;18.040;2023-03-14T07:09:16;12.10;99.90
19168;DHT22;9716;53.114;18.040;2023-03-14T07:11:45;12.20;99.90
19168;DHT22;9716;53.114;18.040;2023-03-14T07:14:15;12.20;99.90
19168;DHT22;9716;53.114;18.040;2023-03-14T07:16:43;12.40;99.90
19168;DHT22;9716;53.114;18.040;2023-03-14T07:19:12;12.60;99.90
19168;DHT22;9716;53.114;18.040;2023-03-14T07:21:40;12.80;99.90
19168;DHT22;9716;53.114;18.040;2023-03-14T07:24:09;13.20;99.90
19168;DHT22;9716;53.114;18.040;2023-03-14T07:26:37;13.40;99.90
19168;DHT22;9716;53.114;18.040;2023-03-14T07:29:06;13.70;99.90
19168;DHT22;9716;53.114;18.040;2023-03-14T07:31:36;13.90;99.90
19168;DHT22;9716;53.114;18.040;2023-03-14T07:34:04;14.10;99.90
19168;DHT22;9716;53.114;18.040;2023-03-14T07:36:32;14.10;99.90
19168;DHT22;9716;53.114;18.040;2023-03-14T07:39:01;14.20;99.90
19168;DHT22;9716;53.114;18.040;2023-03-14T07:41:31;14.10;99.90
19168;DHT22;9716;53.114;18.040;2023-03-14T07:44:00;14.10;99.90
19168;DHT22;9716;53.114;18.040;2023-03-14T07:46:28;14.10;99.90
19168;DHT22;9716;53.114;18.040;2023-03-14T07:48:59;14.10;99.90
19168;DHT22;9716;53.114;18.040;2023-03-14T07:51:27;14.00;99.90
19168;DHT22;9716;53.114;18.040;2023-03-14T07:53:55;14.00;99.90
19168;DHT22;9716;53.114;18.040;2023-03-14T07:56:24;14.00;99.90
19168;DHT22;9716;53.114;18.040;2023-03-14T07:58:52;13.90;99.90
19168;DHT22;9716;53.114;18.040;2023-03-14T08:01:21;13.90;99.90
19168;DHT22;9716;53.114;18.040;2023-03-14T08:03:49;13.90;99.90
19168;DHT22;9716;53.114;18.040;2023-03-14T08:06:19;13.80;99.90
19168;DHT22;9716;53.114;18.040;2023-03-14T08:08:48;13.90;99.90
19168;DHT22;9716;53.114;18.040;2023-03-14T08:11:16;13.90;99.90
19168;DHT22;9716;53.114;18.040;2023-03-14T08:13:45;13.80;99.90
19168;DHT22;9716;53.114;18.040;2023-03-14T08:16:16;13.80;99.90
19168;DHT22;9716;53.114;18.040;2023-03-14T08:18:45;13.90;99.90
19168;DHT22;9716;53.114;18.040;2023-03-14T08:21:14;13.90;99.90
19168;DHT22;9716;53.114;18.040;2023-03-14T08:23:44;13.80;99.90
19168;DHT22;9716;53.114;18.040;2023-03-14T08:26:12;13.80;99.90
19168;DHT22;9716;53.114;18.040;2023-03-14T08:28:41;13.70;99.90
19168;DHT22;9716;53.114;18.040;2023-03-14T08:31:09;13.70;99.90
19168;DHT22;9716;53.114;18.040;2023-03-14T08:33:38;13.70;99.90
19168;DHT22;9716;53.114;18.040;2023-03-14T08:36:07;13.80;99.90
19168;DHT22;9716;53.114;18.040;2023-03-14T08:38:36;13.80;99.90
19168;DHT22;9716;53.114;18.040;2023-03-14T08:41:06;13.90;99.90
19168;DHT22;9716;53.114;18.040;2023-03-14T08:43:35;13.90;99.90
19168;DHT22;9716;53.114;18.040;2023-03-14T08:46:04;13.90;99.90
19168;DHT22;9716;53.114;18.040;2023-03-14T08:48:33;13.90;99.90
19168;DHT22;9716;53.114;18.040;2023-03-14T08:51:05;14.00;99.90
19168;DHT22;9716;53.114;18.040;2023-03-14T08:53:33;13.90;99.90
19168;DHT22;9716;53.114;18.040;2023-03-14T08:56:02;14.00;99.90
19168;DHT22;9716;53.114;18.040;2023-03-14T08:58:32;14.00;99.90
19168;DHT22;9716;53.114;18.040;2023-03-14T09:01:00;14.00;99.90
19168;DHT22;9716;53.114;18.040;2023-03-14T09:03:29;14.00;99.90
19168;DHT22;9716;53.114;18.040;2023-03-14T09:06:01;13.90;99.90
19168;DHT22;9716;53.114;18.040;2023-03-14T09:08:31;13.90;99.90
19168;DHT22;9716;53.114;18.040;2023-03-14T09:11:00;13.80;99.90
19168;DHT22;9716;53.114;18.040;2023-03-14T09:13:28;13.80;99.90
19168;DHT22;9716;53.114;18.040;2023-03-14T09:15:58;13.80;99.90
19168;DHT22;9716;53.114;18.040;2023-03-14T09:18:27;13.80;99.90
19168;DHT22;9716;53.114;18.040;2023-03-14T09:20:56;13.90;99.90
19168;DHT22;9716;53.114;18.040;2023-03-14T09:23:24;14.10;99.90
19168;DHT22;9716;53.114;18.040;2023-03-14T09:25:54;14.10;99.90
19168;DHT22;9716;53.114;18.040;2023-03-14T09:28:25;14.30;99.90
19168;DHT22;9716;53.114;18.040;2023-03-14T09:30:53;14.40;99.90
19168;DHT22;9716;53.114;18.040;2023-03-14T09:33:24;14.60;99.90
19168;DHT22;9716;53.114;18.040;2023-03-14T09:35:52;14.70;99.90
19168;DHT22;9716;53.114;18.040;2023-03-14T09:38:21;14.80;99.90
19168;DHT22;9716;53.114;18.040;2023-03-14T09:40:50;15.00;99.90
19168;DHT22;9716;53.114;18.040;2023-03-14T09:43:19;15.10;99.90
19168;DHT22;9716;53.114;18.040;2023-03-14T09:45:50;15.20;99.90
19168;DHT22;9716;53.114;18.040;2023-03-14T09:48:21;15.30;99.90
19168;DHT22;9716;53.114;18.040;2023-03-14T09:50:53;15.30;99.90
19168;DHT22;9716;53.114;18.040;2023-03-14T09:53:25;15.40;99.90
19168;DHT22;9716;53.114;18.040;2023-03-14T09:55:55;15.60;99.90
19168;DHT22;9716;53.114;18.040;2023-03-14T09:58:27;15.60;99.90
19168;DHT22;9716;53.114;18.040;2023-03-14T10:00:56;15.70;99.90
19168;DHT22;9716;53.114;18.040;2023-03-14T10:03:29;15.70;99.90
19168;DHT22;9716;53.114;18.040;2023-03-14T10:06:01;15.70;99.90
19168;DHT22;9716;53.114;18.040;2023-03-14T10:08:29;15.60;99.90
19168;DHT22;9716;53.114;18.040;2023-03-14T10:10:58;15.60;99.90
19168;DHT22;9716;53.114;18.040;2023-03-14T10:13:27;15.60;99.90
19168;DHT22;9716;53.114;18.040;2023-03-14T10:16:01;15.50;99.90
19168;DHT22;9716;53.114;18.040;2023-03-14T10:18:31;15.40;99.90
19168;DHT22;9716;53.114;18.040;2023-03-14T10:21:05;15.30;99.90
19168;DHT22;9716;53.114;18.040;2023-03-14T10:23:35;15.10;99.90
19168;DHT22;9716;53.114;18.040;2023-03-14T10:26:07;15.00;99.90
19168;DHT22;9716;53.114;18.040;2023-03-14T10:28:41;14.90;99.90
19168;DHT22;9716;53.114;18.040;2023-03-14T10:31:12;14.90;99.90
19168;DHT22;9716;53.114;18.040;2023-03-14T10:33:41;14.90;99.90
19168;DHT22;9716;53.114;18.040;2023-03-14T10:36:19;14.80;99.90
19168;DHT22;9716;53.114;18.040;2023-03-14T10:38:49;14.80;99.90
19168;DHT22;9716;53.114;18.040;2023-03-14T10:41:19;14.80;99.90
19168;DHT22;9716;53.114;18.040;2023-03-14T10:43:54;14.80;99.90
19168;DHT22;9716;53.114;18.040;2023-03-14T10:46:24;14.90;99.90
19168;DHT22;9716;53.114;18.040;2023-03-14T10:48:54;15.00;99.90
19168;DHT22;9716;53.114;18.040;2023-03-14T10:51:26;15.10;99.90
19168;DHT22;9716;53.114;18.040;2023-03-14T10:53:57;15.20;99.90
19168;DHT22;9716;53.114;18.040;2023-03-14T10:56:28;15.30;99.90
19168;DHT22;9716;53.114;18.040;2023-03-14T10:59:01;15.40;99.90
19168;DHT22;9716;53.114;18.040;2023-03-14T11:01:39;15.40;99.90
19168;DHT22;9716;53.114;18.040;2023-03-14T11:04:18;15.50;99.90
19168;DHT22;9716;53.114;18.040;2023-03-14T11:06:57;15.40;99.90
19168;DHT22;9716;53.114;18.040;2023-03-14T11:09:33;15.40;99.90
19168;DHT22;9716;53.114;18.040;2023-03-14T11:12:15;15.30;99.90
19168;DHT22;9716;53.114;18.040;2023-03-14T11:14:51;15.20;99.90
19168;DHT22;9716;53.114;18.040;2023-03-14T11:17:28;15.20;99.90
19168;DHT22;9716;53.114;18.040;2023-03-14T11:20:10;15.10;99.90
19168;DHT22;9716;53.114;18.040;2023-03-14T11:22:47;15.10;99.90
19168;DHT22;9716;53.114;18.040;2023-03-14T11:25:23;15.10;99.90
19168;DHT22;9716;53.114;18.040;2023-03-14T11:28:00;15.10;99.90
19168;DHT22;9716;53.114;18.040;2023-03-14T11:30:35;15.10;99.90
19168;DHT22;9716;53.114;18.040;2023-03-14T11:33:14;15.10;99.90
19168;DHT22;9716;53.114;18.040;2023-03-14T11:35:47;15.10;99.90
19168;DHT22;9716;53.114;18.040;2023-03-14T11:38:28;15.10;99.90
19168;DHT22;9716;53.114;18.040;2023-03-14T11:40:59;15.10;99.90
19168;DHT22;9716;53.114;18.040;2023-03-14T11:43:30;15.10;99.90
19168;DHT22;9716;53.114;18.040;2023-03-14T11:46:05;15.20;99.90
19168;DHT22;9716;53.114;18.040;2023-03-14T11:48:39;15.20;99.90
19168;DHT22;9716;53.114;18.040;2023-03-14T11:51:16;15.30;99.90
19168;DHT22;9716;53.114;18.040;2023-03-14T11:53:57;15.30;99.90
19168;DHT22;9716;53.114;18.040;2023-03-14T11:56:31;15.30;99.90
19168;DHT22;9716;53.114;18.040;2023-03-14T11:59:05;15.40;99.90
19168;DHT22;9716;53.114;18.040;2023-03-14T12:01:45;15.40;99.90
19168;DHT22;9716;53.114;18.040;2023-03-14T12:04:23;15.40;99.90
19168;DHT22;9716;53.114;18.040;2023-03-14T12:06:56;15.40;99.90
19168;DHT22;9716;53.114;18.040;2023-03-14T12:09:29;15.30;99.90
19168;DHT22;9716;53.114;18.040;2023-03-14T12:11:59;15.30;99.90
19168;DHT22;9716;53.114;18.040;2023-03-14T12:14:31;15.20;99.90
19168;DHT22;9716;53.114;18.040;2023-03-14T12:17:05;15.20;99.90
19168;DHT22;9716;53.114;18.040;2023-03-14T12:19:36;15.20;99.90
19168;DHT22;9716;53.114;18.040;2023-03-14T12:22:24;15.20;99.90
19168;DHT22;9716;53.114;18.040;2023-03-14T12:24:59;15.10;99.90
19168;DHT22;9716;53.114;18.040;2023-03-14T12:27:48;15.10;99.90
19168;DHT22;9716;53.114;18.040;2023-03-14T12:30:24;15.00;99.90
19168;DHT22;9716;53.114;18.040;2023-03-14T12:33:30;14.90;99.90
19168;DHT22;9716;53.114;18.040;2023-03-14T12:36:04;14.90;99.90
19168;DHT22;9716;53.114;18.040;2023-03-14T12:39:10;15.00;99.90
19168;DHT22;9716;53.114;18.040;2023-03-14T12:41:45;15.20;99.90
19168;DHT22;9716;53.114;18.040;2023-03-14T12:44:43;15.40;99.90
19168;DHT22;9716;53.114;18.040;2023-03-14T12:47:44;15.50;99.90
19168;DHT22;9716;53.114;18.040;2023-03-14T12:50:20;15.50;99.90
19168;DHT22;9716;53.114;18.040;2023-03-14T12:53:12;15.50;99.90
19168;DHT22;9716;53.114;18.040;2023-03-14T12:55:49;15.50;99.90
19168;DHT22;9716;53.114;18.040;2023-03-14T12:58:27;15.60;99.90
19168;DHT22;9716;53.114;18.040;2023-03-14T13:01:00;15.60;99.90
19168;DHT22;9716;53.114;18.040;2023-03-14T13:03:38;15.60;99.90
19168;DHT22;9716;53.114;18.040;2023-03-14T13:06:09;15.70;99.90
19168;DHT22;9716;53.114;18.040;2023-03-14T13:08:40;15.60;99.90
19168;DHT22;9716;53.114;18.040;2023-03-14T13:11:12;15.60;99.90
19168;DHT22;9716;53.114;18.040;2023-03-14T13:13:45;15.60;99.90
19168;DHT22;9716;53.114;18.040;2023-03-14T13:16:17;15.60;99.90
19168;DHT22;9716;53.114;18.040;2023-03-14T13:18:47;15.60;99.90
19168;DHT22;9716;53.114;18.040;2023-03-14T13:21:17;15.60;99.90
19168;DHT22;9716;53.114;18.040;2023-03-14T13:23:57;15.60;99.90
19168;DHT22;9716;53.114;18.040;2023-03-14T13:26:34;15.50;99.90
19168;DHT22;9716;53.114;18.040;2023-03-14T13:29:14;15.50;99.90
19168;DHT22;9716;53.114;18.040;2023-03-14T13:31:43;15.40;99.90
19168;DHT22;9716;53.114;18.040;2023-03-14T13:34:12;15.30;99.90
19168;DHT22;9716;53.114;18.040;2023-03-14T13:36:41;15.30;99.90
19168;DHT22;9716;53.114;18.040;2023-03-14T13:39:13;15.10;99.90
19168;DHT22;9716;53.114;18.040;2023-03-14T13:41:42;15.00;99.90
19168;DHT22;9716;53.114;18.040;2023-03-14T13:44:16;14.80;99.90
19168;DHT22;9716;53.114;18.040;2023-03-14T13:46:46;14.70;99.90
19168;DHT22;9716;53.114;18.040;2023-03-14T13:49:19;14.60;99.90
19168;DHT22;9716;53.114;18.040;2023-03-14T13:51:50;14.50;99.90
19168;DHT22;9716;53.114;18.040;2023-03-14T13:54:20;14.50;99.90
19168;DHT22;9716;53.114;18.040;2023-03-14T13:56:59;14.50;99.90
19168;DHT22;9716;53.114;18.040;2023-03-14T13:59:30;14.40;99.90
19168;DHT22;9716;53.114;18.040;2023-03-14T14:02:02;14.40;99.90
19168;DHT22;9716;53.114;18.040;2023-03-14T14:04:33;14.30;99.90
19168;DHT22;9716;53.114;18.040;2023-03-14T14:07:07;14.20;99.90
19168;DHT22;9716;53.114;18.040;2023-03-14T14:09:39;14.20;99.90
19168;DHT22;9716;53.114;18.040;2023-03-14T14:12:14;14.20;99.90
19168;DHT22;9716;53.114;18.040;2023-03-14T14:14:48;14.20;99.90
19168;DHT22;9716;53.114;18.040;2023-03-14T14:17:21;14.30;99.90
19168;DHT22;9716;53.114;18.040;2023-03-14T14:19:50;14.30;99.90
19168;DHT22;9716;53.114;18.040;2023-03-14T14:22:20;14.50;99.90
19168;DHT22;9716;53.114;18.040;2023-03-14T14:24:49;14.50;99.90
19168;DHT22;9716;53.114;18.040;2023-03-14T14:27:26;14.60;99.90
19168;DHT22;9716;53.114;18.040;2023-03-14T14:30:04;14.70;99.90
19168;DHT22;9716;53.114;18.040;2023-03-14T14:32:37;14.70;99.90
19168;DHT22;9716;53.114;18.040;2023-03-14T14:35:08;14.80;99.90
19168;DHT22;9716;53.114;18.040;2023-03-14T14:37:42;14.80;99.90
19168;DHT22;9716;53.114;18.040;2023-03-14T14:40:25;14.80;99.90
19168;DHT22;9716;53.114;18.040;2023-03-14T14:42:55;14.90;99.90
19168;DHT22;9716;53.114;18.040;2023-03-14T14:45:34;14.90;99.90
19168;DHT22;9716;53.114;18.040;2023-03-14T14:48:06;15.00;99.90
19168;DHT22;9716;53.114;18.040;2023-03-14T14:50:37;15.00;99.90
19168;DHT22;9716;53.114;18.040;2023-03-14T14:53:21;15.10;99.90
19168;DHT22;9716;53.114;18.040;2023-03-14T14:55:51;15.10;99.90
19168;DHT22;9716;53.114;18.040;2023-03-14T14:58:24;15.00;99.90
19168;DHT22;9716;53.114;18.040;2023-03-14T15:00:57;14.90;99.90
19168;DHT22;9716;53.114;18.040;2023-03-14T15:03:29;14.90;99.90
19168;DHT22;9716;53.114;18.040;2023-03-14T15:05:59;14.80;99.90
19168;DHT22;9716;53.114;18.040;2023-03-14T15:08:28;14.70;99.90
19168;DHT22;9716;53.114;18.040;2023-03-14T15:10:56;14.60;99.90
19168;DHT22;9716;53.114;18.040;2023-03-14T15:13:25;14.50;99.90
19168;DHT22;9716;53.114;18.040;2023-03-14T15:15:55;14.50;99.90
19168;DHT22;9716;53.114;18.040;2023-03-14T15:18:25;14.40;99.90
19168;DHT22;9716;53.114;18.040;2023-03-14T15:20:57;14.40;99.90
19168;DHT22;9716;53.114;18.040;2023-03-14T15:23:26;14.40;99.90
19168;DHT22;9716;53.114;18.040;2023-03-14T15:25:54;14.50;99.90
19168;DHT22;9716;53.114;18.040;2023-03-14T15:28:24;14.70;99.90
19168;DHT22;9716;53.114;18.040;2023-03-14T15:30:55;15.00;99.90
19168;DHT22;9716;53.114;18.040;2023-03-14T15:33:25;15.20;99.90
19168;DHT22;9716;53.114;18.040;2023-03-14T15:35:54;15.40;99.90
19168;DHT22;9716;53.114;18.040;2023-03-14T15:38:24;15.70;99.90
19168;DHT22;9716;53.114;18.040;2023-03-14T15:40:52;15.80;99.90
19168;DHT22;9716;53.114;18.040;2023-03-14T15:43:21;16.00;99.90
19168;DHT22;9716;53.114;18.040;2023-03-14T15:45:50;16.20;99.90
19168;DHT22;9716;53.114;18.040;2023-03-14T15:48:21;16.30;99.90
19168;DHT22;9716;53.114;18.040;2023-03-14T15:50:50;16.50;99.90
19168;DHT22;9716;53.114;18.040;2023-03-14T15:53:18;16.60;99.90